Time;durP1;ratioP1;P1;durP2;ratioP2;P2;SDS_P1;SDS_P2;PMS_P1;PMS_P2;Temp;Humidity;BMP_temperature;BMP_pressure;BME280_temperature;BME280_humidity;BME280_pressure;Samples;Min_cycle;Max_cycle;Signal;HPM_P1;HPM_P2
2023/05/28 00:01:22;;;;;;;;;;;;;;;;;;5051711;28;19925;-61
2023/05/28 00:03:48;;;;;;;;;;;;;;;;;;5050573;28;19925;-62
2023/05/28 00:06:14;;;;;;;;;;;;;;;;;;5050165;28;19931;-62
2023/05/28 00:08:40;;;;;;;;;;;;;;;;;;5051164;28;19920;-61
2023/05/28 00:11:06;;;;;;;;;;;;;;;;;;5050915;28;19983;-62
2023/05/28 00:13:32;;;;;;;;;;;;;;;;;;5051481;28;19924;-62
2023/05/28 00:15:57;;;;;;;;;;;;;;;;;;5051436;28;19920;-62
2023/05/28 00:18:23;;;;;;;;;;;;;;;;;;5051618;28;19970;-62
2023/05/28 00:20:49;;;;;;;;;;;;;;;;;;5033363;28;19925;-62
2023/05/28 00:23:16;;;;;;;;;;;;;;;;;;5051501;28;19933;-62
2023/05/28 00:25:42;;;;;;;;;;;;;;;;;;5067022;28;20294;-62
2023/05/28 00:28:08;;;;;;;;;;;;;;;;;;5067024;28;19921;-62
2023/05/28 00:30:34;;;;;;;;;;;;;;;;;;5066740;28;19975;-62
2023/05/28 00:33:00;;;;;;;;;;;;;;;;;;5051364;28;20270;-62
2023/05/28 00:35:26;;;;;;;;;;;;;;;;;;5051303;28;20329;-61
2023/05/28 00:37:52;;;;;;;;;;;;;;;;;;5051551;28;19920;-62
2023/05/28 00:40:18;;;;;;;;;;;;;;;;;;5049834;28;19924;-62
2023/05/28 00:42:44;;;;;;;;;;;;;;;;;;5050033;28;20305;-62
2023/05/28 00:45:11;;;;;;;;;;;;;;;;;;5049811;28;19928;-62
2023/05/28 00:47:37;;;;;;;;;;;;;;;;;;5051282;28;19944;-62
2023/05/28 00:50:03;;;;;;;;;;;;;;;;;;5051303;28;20374;-62
2023/05/28 00:52:28;;;;;;;;;;;;;;;;;;5050995;28;19921;-62
2023/05/28 00:54:55;;;;;;;;;;;;;;;;;;5049741;28;19951;-62
2023/05/28 00:57:23;;;;;;;;;;;;;;;;;;5051048;28;19927;-62
2023/05/28 00:59:48;;;;;;;;;;;;;;;;;;5051034;28;19924;-62
2023/05/28 01:02:14;;;;;;;;;;;;;;;;;;5066164;28;19925;-62
2023/05/28 01:04:40;;;;;;;;;;;;;;;;;;5053796;28;20362;-62
2023/05/28 01:07:06;;;;;;;;;;;;;;;;;;5069630;28;19936;-61
2023/05/28 01:09:32;;;;;;;;;;;;;;;;;;5069291;28;20553;-61
2023/05/28 01:11:58;;;;;;;;;;;;;;;;;;5053765;28;20282;-62
2023/05/28 01:14:24;;;;;;;;;;;;;;;;;;5054265;28;19983;-62
2023/05/28 01:16:50;;;;;;;;;;;;;;;;;;5053787;28;19925;-62
2023/05/28 01:19:16;;;;;;;;;;;;;;;;;;5053768;28;19956;-62
2023/05/28 01:21:42;;;;;;;;;;;;;;;;;;5068564;28;19931;-62
2023/05/28 01:24:08;;;;;;;;;;;;;;;;;;5053421;28;20289;-62
2023/05/28 01:26:34;;;;;;;;;;;;;;;;;;5053236;28;20017;-62
2023/05/28 01:29:00;;;;;;;;;;;;;;;;;;5053347;28;19928;-62
2023/05/28 01:31:25;;;;;;;;;;;;;;;;;;5053184;28;20016;-62
2023/05/28 01:33:51;;;;;;;;;;;;;;;;;;5053362;28;19947;-61
2023/05/28 01:36:17;;;;;;;;;;;;;;;;;;5052922;28;19935;-61
2023/05/28 01:38:44;;;;;;;;;;;;;;;;;;5054289;28;20350;-60
2023/05/28 01:41:10;;;;;;;;;;;;;;;;;;5053841;28;19925;-60
2023/05/28 01:43:36;;;;;;;;;;;;;;;;;;5053983;28;19936;-60
2023/05/28 01:46:02;;;;;;;;;;;;;;;;;;5054067;28;19925;-60
2023/05/28 01:48:28;;;;;;;;;;;;;;;;;;5052767;28;19921;-60
2023/05/28 01:50:53;;;;;;;;;;;;;;;;;;5054003;28;19921;-60
2023/05/28 01:53:19;;;;;;;;;;;;;;;;;;5069424;28;19975;-60
2023/05/28 01:55:45;;;;;;;;;;;;;;;;;;5053887;28;20478;-60
2023/05/28 01:58:11;;;;;;;;;;;;;;;;;;5053859;28;19925;-60
2023/05/28 02:00:37;;;;;;;;;;;;;;;;;;5053829;28;20282;-60
2023/05/28 02:03:04;;;;;;;;;;;;;;;;;;5053616;28;19924;-60
2023/05/28 02:05:30;;;;;;;;;;;;;;;;;;5068776;28;20058;-59
2023/05/28 02:07:58;;;;;;;;;;;;;;;;;;5053587;28;20015;-59
2023/05/28 02:10:24;;;;;;;;;;;;;;;;;;5068776;28;20699;-59
2023/05/28 02:12:50;;;;;;;;;;;;;;;;;;5068517;28;19931;-59
2023/05/28 02:15:16;;;;;;;;;;;;;;;;;;5052397;28;20385;-59
2023/05/28 02:17:43;;;;;;;;;;;;;;;;;;5053243;28;19928;-60
2023/05/28 02:20:09;;;;;;;;;;;;;;;;;;5069125;28;19921;-60
2023/05/28 02:22:35;;;;;;;;;;;;;;;;;;5068517;28;19948;-59
2023/05/28 02:25:01;;;;;;;;;;;;;;;;;;5052076;28;19970;-59
2023/05/28 02:27:27;;;;;;;;;;;;;;;;;;5053202;28;19925;-60
2023/05/28 02:29:53;;;;;;;;;;;;;;;;;;5053232;28;20357;-60
2023/05/28 02:32:19;;;;;;;;;;;;;;;;;;5068245;28;19927;-60
2023/05/28 02:34:45;;;;;;;;;;;;;;;;;;5053071;28;19928;-60
2023/05/28 02:37:11;;;;;;;;;;;;;;;;;;5052847;28;19928;-59
2023/05/28 02:39:36;;;;;;;;;;;;;;;;;;5052874;28;19927;-60
2023/05/28 02:42:02;;;;;;;;;;;;;;;;;;5052655;28;19932;-60
2023/05/28 02:44:28;;;;;;;;;;;;;;;;;;5052984;28;20036;-60
2023/05/28 02:46:54;;;;;;;;;;;;;;;;;;5051420;28;19924;-60
2023/05/28 02:49:20;;;;;;;;;;;;;;;;;;5052822;28;19928;-60
2023/05/28 02:51:46;;;;;;;;;;;;;;;;;;5053004;28;19925;-60
2023/05/28 02:54:12;;;;;;;;;;;;;;;;;;5052131;28;19932;-60
2023/05/28 02:56:38;;;;;;;;;;;;;;;;;;5051961;28;19925;-60
2023/05/28 02:59:04;;;;;;;;;;;;;;;;;;5050900;28;19920;-60
2023/05/28 03:01:30;;;;;;;;;;;;;;;;;;5052043;28;20035;-60
2023/05/28 03:03:56;;;;;;;;;;;;;;;;;;5051795;28;20398;-60
2023/05/28 03:06:22;;;;;;;;;;;;;;;;;;5051017;28;19975;-60
2023/05/28 03:08:48;;;;;;;;;;;;;;;;;;5052315;28;19927;-60
2023/05/28 03:11:14;;;;;;;;;;;;;;;;;;5034196;28;19921;-60
2023/05/28 03:13:40;;;;;;;;;;;;;;;;;;5052131;28;20015;-60
2023/05/28 03:16:06;;;;;;;;;;;;;;;;;;5051677;28;19925;-60
2023/05/28 03:18:32;;;;;;;;;;;;;;;;;;5051329;28;19928;-60
2023/05/28 03:20:58;;;;;;;;;;;;;;;;;;5051731;28;20687;-60
2023/05/28 03:23:24;;;;;;;;;;;;;;;;;;5051334;28;19925;-60
2023/05/28 03:25:49;;;;;;;;;;;;;;;;;;5050864;28;19966;-60
2023/05/28 03:28:15;;;;;;;;;;;;;;;;;;5049784;28;19920;-60
2023/05/28 03:30:41;;;;;;;;;;;;;;;;;;5051206;28;19925;-60
2023/05/28 03:33:07;;;;;;;;;;;;;;;;;;5050827;28;19956;-59
2023/05/28 03:35:33;;;;;;;;;;;;;;;;;;5050486;28;19929;-59
2023/05/28 03:37:59;;;;;;;;;;;;;;;;;;5065691;28;20009;-59
2023/05/28 03:40:25;;;;;;;;;;;;;;;;;;5051427;28;19924;-59
2023/05/28 03:42:51;;;;;;;;;;;;;;;;;;5050452;28;19925;-59
2023/05/28 03:45:17;;;;;;;;;;;;;;;;;;5050360;28;19920;-59
2023/05/28 03:47:43;;;;;;;;;;;;;;;;;;5051887;28;19921;-59
2023/05/28 03:50:09;;;;;;;;;;;;;;;;;;5050508;28;19924;-59
2023/05/28 03:52:35;;;;;;;;;;;;;;;;;;5052137;28;20083;-59
2023/05/28 03:55:01;;;;;;;;;;;;;;;;;;5051648;28;19935;-59
2023/05/28 03:57:27;;;;;;;;;;;;;;;;;;5067049;28;19931;-59
2023/05/28 03:59:55;;;;;;;;;;;;;;;;;;5051830;28;19925;-60
2023/05/28 04:02:21;;;;;;;;;;;;;;;;;;5051813;28;19928;-60
2023/05/28 04:04:47;;;;;;;;;;;;;;;;;;5051547;28;20366;-60
2023/05/28 04:07:13;;;;;;;;;;;;;;;;;;5051751;28;19921;-59
2023/05/28 04:09:40;;;;;;;;;;;;;;;;;;5051284;28;20401;-60
2023/05/28 04:12:06;;;;;;;;;;;;;;;;;;5051689;28;19983;-60
2023/05/28 04:14:32;;;;;;;;;;;;;;;;;;5051567;28;19939;-60
2023/05/28 04:16:58;;;;;;;;;;;;;;;;;;5051316;28;20409;-60
2023/05/28 04:19:23;;;;;;;;;;;;;;;;;;5051389;28;19928;-60
2023/05/28 04:21:50;;;;;;;;;;;;;;;;;;5051274;28;20033;-60
2023/05/28 04:24:15;;;;;;;;;;;;;;;;;;5050024;28;19925;-60
2023/05/28 04:26:41;;;;;;;;;;;;;;;;;;5051761;28;20396;-59
2023/05/28 04:29:07;;;;;;;;;;;;;;;;;;5066647;28;19928;-60
2023/05/28 04:31:33;;;;;;;;;;;;;;;;;;5050098;28;19975;-60
2023/05/28 04:34:00;;;;;;;;;;;;;;;;;;5049934;28;19920;-60
2023/05/28 04:36:29;;;;;;;;;;;;;;;;;;5051238;28;19972;-60
2023/05/28 04:38:56;;;;;;;;;;;;;;;;;;5052925;28;19968;-60
2023/05/28 04:41:22;;;;;;;;;;;;;;;;;;5054804;28;20358;-60
2023/05/28 04:43:48;;;;;;;;;;;;;;;;;;5070327;28;19943;-60
2023/05/28 04:46:14;;;;;;;;;;;;;;;;;;5055039;28;19925;-60
2023/05/28 04:48:40;;;;;;;;;;;;;;;;;;5070230;28;19931;-60
2023/05/28 04:51:06;;;;;;;;;;;;;;;;;;5054650;28;19928;-60
2023/05/28 04:53:33;;;;;;;;;;;;;;;;;;5054778;28;20456;-60
2023/05/28 04:55:59;;;;;;;;;;;;;;;;;;5054758;28;19920;-60
2023/05/28 04:58:25;;;;;;;;;;;;;;;;;;5054839;28;19928;-60
2023/05/28 05:00:52;;;;;;;;;;;;;;;;;;5054723;28;19921;-60
2023/05/28 05:03:18;;;;;;;;;;;;;;;;;;5054709;28;20270;-60
2023/05/28 05:05:44;;;;;;;;;;;;;;;;;;5053286;28;19921;-60
2023/05/28 05:08:13;;;;;;;;;;;;;;;;;;5054840;28;19921;-60
2023/05/28 05:10:38;;;;;;;;;;;;;;;;;;5054737;28;19928;-60
2023/05/28 05:13:04;;;;;;;;;;;;;;;;;;5054581;28;19928;-60
2023/05/28 05:15:30;;;;;;;;;;;;;;;;;;5054532;28;19920;-60
2023/05/28 05:17:56;;;;;;;;;;;;;;;;;;5053769;28;20012;-60
2023/05/28 05:20:22;;;;;;;;;;;;;;;;;;5069171;28;20011;-60
2023/05/28 05:22:48;;;;;;;;;;;;;;;;;;5053541;28;19931;-60
2023/05/28 05:25:14;;;;;;;;;;;;;;;;;;5053508;28;19925;-60
2023/05/28 05:27:40;;;;;;;;;;;;;;;;;;5053262;28;19951;-60
2023/05/28 05:30:06;;;;;;;;;;;;;;;;;;5053369;28;19982;-60
2023/05/28 05:32:32;;;;;;;;;;;;;;;;;;5053480;28;19921;-60
2023/05/28 05:34:58;;;;;;;;;;;;;;;;;;5053524;28;19921;-60
2023/05/28 05:37:24;;;;;;;;;;;;;;;;;;5035277;28;20189;-60
2023/05/28 05:39:49;;;;;;;;;;;;;;;;;;5053262;28;19924;-60
2023/05/28 05:42:15;;;;;;;;;;;;;;;;;;5053506;28;19980;-60
2023/05/28 05:44:41;;;;;;;;;;;;;;;;;;5068971;28;19920;-60
2023/05/28 05:47:07;;;;;;;;;;;;;;;;;;5053608;28;20704;-60
2023/05/28 05:49:33;;;;;;;;;;;;;;;;;;5068793;28;19925;-60
2023/05/28 05:51:59;;;;;;;;;;;;;;;;;;5053641;28;19928;-60
2023/05/28 05:54:25;;;;;;;;;;;;;;;;;;5053995;28;19921;-60
2023/05/28 05:56:52;;;;;;;;;;;;;;;;;;5069047;28;20324;-60
2023/05/28 05:59:18;;;;;;;;;;;;;;;;;;5053715;28;19928;-60
2023/05/28 06:01:44;;;;;;;;;;;;;;;;;;5053714;28;19929;-61
2023/05/28 06:04:10;;;;;;;;;;;;;;;;;;5053575;28;19932;-60
2023/05/28 06:06:38;;;;;;;;;;;;;;;;;;5053299;28;19925;-60
2023/05/28 06:09:04;;;;;;;;;;;;;;;;;;5053642;28;19921;-59
2023/05/28 06:11:30;;;;;;;;;;;;;;;;;;5068632;28;19920;-60
2023/05/28 06:13:56;;;;;;;;;;;;;;;;;;5053463;28;19978;-60
2023/05/28 06:16:22;;;;;;;;;;;;;;;;;;5053323;28;19932;-60
2023/05/28 06:18:48;;;;;;;;;;;;;;;;;;5053573;28;19920;-60
2023/05/28 06:21:14;;;;;;;;;;;;;;;;;;5068404;28;19970;-60
2023/05/28 06:23:40;;;;;;;;;;;;;;;;;;5053284;28;19925;-59
2023/05/28 06:26:06;;;;;;;;;;;;;;;;;;5051826;28;19943;-60
2023/05/28 06:28:32;;;;;;;;;;;;;;;;;;5053252;28;20263;-59
2023/05/28 06:30:58;;;;;;;;;;;;;;;;;;5053184;28;20625;-60
2023/05/28 06:33:24;;;;;;;;;;;;;;;;;;5035379;28;19925;-60
2023/05/28 06:35:50;;;;;;;;;;;;;;;;;;5052980;28;19925;-59
2023/05/28 06:38:16;;;;;;;;;;;;;;;;;;5052970;28;19931;-61
2023/05/28 06:40:42;;;;;;;;;;;;;;;;;;5052782;28;20365;-60
2023/05/28 06:43:08;;;;;;;;;;;;;;;;;;5052646;28;19983;-60
2023/05/28 06:45:34;;;;;;;;;;;;;;;;;;5052569;28;19921;-60
2023/05/28 06:47:59;;;;;;;;;;;;;;;;;;5052383;28;19928;-61
2023/05/28 06:50:25;;;;;;;;;;;;;;;;;;5070740;22;19932;-60
2023/05/28 06:52:51;;;;;;;;;;;;;;;;;;5093819;28;19924;-60
2023/05/28 06:55:17;;;;;;;;;;;;;;;;;;5093282;28;19938;-60
2023/05/28 06:57:44;;;;;;;;;;;;;;;;;;5092941;28;19924;-60
2023/05/28 07:00:14;;;;;;;;;;;;;;;;;;5093430;28;19956;-60
2023/05/28 07:02:40;;;;;;;;;;;;;;;;;;5091549;28;19964;-60
2023/05/28 07:05:05;;;;;;;;;;;;;;;;;;5092114;28;19967;-60
2023/05/28 07:07:31;;;;;;;;;;;;;;;;;;5092901;28;19923;-60
2023/05/28 07:09:57;;;;;;;;;;;;;;;;;;5092758;28;19924;-61
2023/05/28 07:12:23;;;;;;;;;;;;;;;;;;5092632;28;19924;-61
2023/05/28 07:14:49;;;;;;;;;;;;;;;;;;5092535;28;20708;-61
2023/05/28 07:17:15;;;;;;;;;;;;;;;;;;5092587;28;20019;-60
2023/05/28 07:19:42;;;;;;;;;;;;;;;;;;5091146;28;19999;-61
2023/05/28 07:22:08;;;;;;;;;;;;;;;;;;5090975;28;19932;-60
2023/05/28 07:24:33;;;;;;;;;;;;;;;;;;5093000;28;19969;-60
2023/05/28 07:26:59;;;;;;;;;;;;;;;;;;5090973;28;19920;-60
2023/05/28 07:29:25;;;;;;;;;;;;;;;;;;5091300;28;19928;-60
2023/05/28 07:31:51;;;;;;;;;;;;;;;;;;5092459;28;20003;-60
2023/05/28 07:34:17;;;;;;;;;;;;;;;;;;5092309;28;19980;-60
2023/05/28 07:36:43;;;;;;;;;;;;;;;;;;5092263;28;19964;-60
2023/05/28 07:39:10;;;;;;;;;;;;;;;;;;5090675;28;20308;-60
2023/05/28 07:41:36;;;;;;;;;;;;;;;;;;5092215;28;20015;-59
2023/05/28 07:44:01;;;;;;;;;;;;;;;;;;5090533;28;20015;-59
2023/05/28 07:46:27;;;;;;;;;;;;;;;;;;5092191;28;19924;-60
2023/05/28 07:48:53;;;;;;;;;;;;;;;;;;5090627;28;19920;-60
2023/05/28 07:51:19;;;;;;;;;;;;;;;;;;5091893;28;19943;-60
2023/05/28 07:53:46;;;;;;;;;;;;;;;;;;5090524;28;20367;-61
2023/05/28 07:56:12;;;;;;;;;;;;;;;;;;5091980;28;19930;-61
2023/05/28 07:58:38;;;;;;;;;;;;;;;;;;5092009;28;19935;-60
2023/05/28 08:01:08;;;;;;;;;;;;;;;;;;5091709;28;19920;-60
2023/05/28 08:03:34;;;;;;;;;;;;;;;;;;5091716;28;20416;-60
2023/05/28 08:06:01;;;;;;;;;;;;;;;;;;5091864;28;19920;-60
2023/05/28 08:08:26;;;;;;;;;;;;;;;;;;5091803;28;20366;-61
2023/05/28 08:10:52;;;;;;;;;;;;;;;;;;5091720;28;19971;-61
2023/05/28 08:13:18;;;;;;;;;;;;;;;;;;5092995;28;19920;-60
2023/05/28 08:15:44;;;;;;;;;;;;;;;;;;5095727;28;20280;-60
2023/05/28 08:18:10;;;;;;;;;;;;;;;;;;5095898;28;19927;-60
2023/05/28 08:20:36;;;;;;;;;;;;;;;;;;5095665;28;20412;-60
2023/05/28 08:23:02;;;;;;;;;;;;;;;;;;5095568;28;19978;-60
2023/05/28 08:25:28;;;;;;;;;;;;;;;;;;5094260;28;19920;-61
2023/05/28 08:27:54;;;;;;;;;;;;;;;;;;5095799;28;19924;-60
2023/05/28 08:30:20;;;;;;;;;;;;;;;;;;5095751;28;20388;-60
2023/05/28 08:32:46;;;;;;;;;;;;;;;;;;5095692;28;19920;-60
2023/05/28 08:35:12;;;;;;;;;;;;;;;;;;5095006;28;20360;-61
2023/05/28 08:37:38;;;;;;;;;;;;;;;;;;5094997;28;19938;-60
2023/05/28 08:40:08;;;;;;;;;;;;;;;;;;5095030;28;20007;-60
2023/05/28 08:42:34;;;;;;;;;;;;;;;;;;5094852;28;19989;-61
2023/05/28 08:44:59;;;;;;;;;;;;;;;;;;5093135;28;20364;-60
2023/05/28 08:47:25;;;;;;;;;;;;;;;;;;5094452;28;19920;-60
2023/05/28 08:49:52;;;;;;;;;;;;;;;;;;5092978;28;19942;-60
2023/05/28 08:52:18;;;;;;;;;;;;;;;;;;5094611;28;20007;-60
2023/05/28 08:54:44;;;;;;;;;;;;;;;;;;5092905;28;20506;-61
2023/05/28 08:57:10;;;;;;;;;;;;;;;;;;5094159;28;19920;-61
2023/05/28 08:59:36;;;;;;;;;;;;;;;;;;5094783;28;19924;-61
2023/05/28 09:02:02;;;;;;;;;;;;;;;;;;5095127;28;19928;-60
2023/05/28 09:04:27;;;;;;;;;;;;;;;;;;5094943;28;19924;-60
2023/05/28 09:06:53;;;;;;;;;;;;;;;;;;5095549;28;19920;-61
2023/05/28 09:09:19;;;;;;;;;;;;;;;;;;5094822;28;19927;-62
2023/05/28 09:11:45;;;;;;;;;;;;;;;;;;5094786;28;19924;-62
2023/05/28 09:14:11;;;;;;;;;;;;;;;;;;5094605;28;20536;-62
2023/05/28 09:16:37;;;;;;;;;;;;;;;;;;5094813;28;19924;-62
2023/05/28 09:19:03;;;;;;;;;;;;;;;;;;5094884;28;19927;-63
2023/05/28 09:21:29;;;;;;;;;;;;;;;;;;5094686;28;19928;-62
2023/05/28 09:23:55;;;;;;;;;;;;;;;;;;5093880;28;19982;-62
2023/05/28 09:26:21;;;;;;;;;;;;;;;;;;5094592;28;19967;-63
2023/05/28 09:28:47;;;;;;;;;;;;;;;;;;5093123;28;20371;-63
2023/05/28 09:31:14;;;;;;;;;;;;;;;;;;5094535;28;19934;-63
2023/05/28 09:33:40;;;;;;;;;;;;;;;;;;5076149;28;19920;-63
2023/05/28 09:36:06;;;;;;;;;;;;;;;;;;5094308;28;19946;-62
2023/05/28 09:38:32;;;;;;;;;;;;;;;;;;5094305;28;19927;-62
2023/05/28 09:40:58;;;;;;;;;;;;;;;;;;5092757;28;19921;-61
2023/05/28 09:43:24;;;;;;;;;;;;;;;;;;5093731;28;19943;-62
2023/05/28 09:45:50;;;;;;;;;;;;;;;;;;5093132;28;19978;-62
2023/05/28 09:48:16;;;;;;;;;;;;;;;;;;5092362;28;19920;-62
2023/05/28 09:50:42;;;;;;;;;;;;;;;;;;5091957;28;20058;-62
2023/05/28 09:53:08;;;;;;;;;;;;;;;;;;5093204;28;19924;-62
2023/05/28 09:55:34;;;;;;;;;;;;;;;;;;5093700;28;20022;-62
2023/05/28 09:58:01;;;;;;;;;;;;;;;;;;5092606;28;19920;-62
2023/05/28 10:00:27;;;;;;;;;;;;;;;;;;5092505;28;19924;-62
2023/05/28 10:02:54;;;;;;;;;;;;;;;;;;5093293;28;21238;-62
2023/05/28 10:05:20;;;;;;;;;;;;;;;;;;5093655;28;20360;-62
2023/05/28 10:07:46;;;;;;;;;;;;;;;;;;5092532;28;19951;-62
2023/05/28 10:10:12;;;;;;;;;;;;;;;;;;5093478;28;20015;-62
2023/05/28 10:12:38;;;;;;;;;;;;;;;;;;5092367;28;19924;-62
2023/05/28 10:15:04;;;;;;;;;;;;;;;;;;5092136;28;20341;-62
2023/05/28 10:17:30;;;;;;;;;;;;;;;;;;5093710;28;19959;-62
2023/05/28 10:19:56;;;;;;;;;;;;;;;;;;5093592;28;20014;-62
2023/05/28 10:22:22;;;;;;;;;;;;;;;;;;5092177;28;20606;-62
2023/05/28 10:24:48;;;;;;;;;;;;;;;;;;5093447;28;19981;-62
2023/05/28 10:27:14;;;;;;;;;;;;;;;;;;5093347;28;20277;-62
2023/05/28 10:29:41;;;;;;;;;;;;;;;;;;5092902;28;19931;-62
2023/05/28 10:32:07;;;;;;;;;;;;;;;;;;5092752;28;19931;-62
2023/05/28 10:34:33;;;;;;;;;;;;;;;;;;5092867;28;20285;-62
2023/05/28 10:36:59;;;;;;;;;;;;;;;;;;5091611;28;19924;-62
2023/05/28 10:39:25;;;;;;;;;;;;;;;;;;5092390;28;20342;-62
2023/05/28 10:41:51;;;;;;;;;;;;;;;;;;5092341;28;20408;-62
2023/05/28 10:44:18;;;;;;;;;;;;;;;;;;5092542;28;19920;-62
2023/05/28 10:46:44;;;;;;;;;;;;;;;;;;5092667;28;19920;-62
2023/05/28 10:49:10;;;;;;;;;;;;;;;;;;5093069;28;19920;-62
2023/05/28 10:51:36;;;;;;;;;;;;;;;;;;5092655;28;19927;-62
2023/05/28 10:54:02;;;;;;;;;;;;;;;;;;5092714;28;20353;-62
2023/05/28 10:56:35;;;;;;;;;;;;;;;;;;5089276;28;20457;-62
2023/05/28 10:59:01;;;;;;;;;;;;;;;;;;5088406;28;19930;-62
2023/05/28 11:01:27;;;;;;;;;;;;;;;;;;5089525;28;20254;-61
2023/05/28 11:03:53;;;;;;;;;;;;;;;;;;5089306;28;19924;-61
2023/05/28 11:06:19;;;;;;;;;;;;;;;;;;5089366;28;19994;-61
2023/05/28 11:08:45;;;;;;;;;;;;;;;;;;5089388;28;19921;-61
2023/05/28 11:11:11;;;;;;;;;;;;;;;;;;5088526;28;19931;-59
2023/05/28 11:13:37;;;;;;;;;;;;;;;;;;5088748;28;19928;-58
2023/05/28 11:16:03;;;;;;;;;;;;;;;;;;5088770;28;19932;-60
2023/05/28 11:18:29;;;;;;;;;;;;;;;;;;5088819;28;19928;-59
2023/05/28 11:20:55;;;;;;;;;;;;;;;;;;5088718;28;20254;-60
2023/05/28 11:23:21;;;;;;;;;;;;;;;;;;5085141;28;19932;-61
2023/05/28 11:25:47;;;;;;;;;;;;;;;;;;5068190;28;19932;-61
2023/05/28 11:28:13;;;;;;;;;;;;;;;;;;5068039;28;20320;-61
2023/05/28 11:30:38;;;;;;;;;;;;;;;;;;5066616;28;19999;-61
2023/05/28 11:33:04;;;;;;;;;;;;;;;;;;5068425;28;19929;-61
2023/05/28 11:35:30;;;;;;;;;;;;;;;;;;5068291;28;19932;-61
2023/05/28 11:37:59;;;;;;;;;;;;;;;;;;5068297;28;20042;-61
2023/05/28 11:40:25;;;;;;;;;;;;;;;;;;5068480;28;19920;-61
2023/05/28 11:42:51;;;;;;;;;;;;;;;;;;5068409;28;19924;-60
2023/05/28 11:45:17;;;;;;;;;;;;;;;;;;5068202;28;19929;-60
2023/05/28 11:47:43;;;;;;;;;;;;;;;;;;5068100;28;20004;-60
2023/05/28 11:50:09;;;;;;;;;;;;;;;;;;5066740;28;19924;-60
2023/05/28 11:52:35;;;;;;;;;;;;;;;;;;5068161;28;20390;-60
2023/05/28 11:55:01;;;;;;;;;;;;;;;;;;5075187;28;20274;-60
2023/05/28 11:57:27;;;;;;;;;;;;;;;;;;5088214;28;19947;-60
2023/05/28 11:59:53;;;;;;;;;;;;;;;;;;5088250;28;20373;-60
2023/05/28 12:02:19;;;;;;;;;;;;;;;;;;5088213;28;20334;-60
2023/05/28 12:04:45;;;;;;;;;;;;;;;;;;5088075;28;20376;-60
2023/05/28 12:07:10;;;;;;;;;;;;;;;;;;5060780;28;19924;-60
2023/05/28 12:09:36;;;;;;;;;;;;;;;;;;5074357;28;20024;-60
2023/05/28 12:12:02;;;;;;;;;;;;;;;;;;5074451;28;19931;-60
2023/05/28 12:14:28;;;;;;;;;;;;;;;;;;5056387;28;20085;-60
2023/05/28 12:16:54;;;;;;;;;;;;;;;;;;5073202;28;20009;-60
2023/05/28 12:19:20;;;;;;;;;;;;;;;;;;5056123;28;20357;-60
2023/05/28 12:21:46;;;;;;;;;;;;;;;;;;5074358;28;19932;-60
2023/05/28 12:24:13;;;;;;;;;;;;;;;;;;5074258;28;19947;-64
2023/05/28 12:26:38;;;;;;;;;;;;;;;;;;5074460;28;19924;-64
2023/05/28 12:29:05;;;;;;;;;;;;;;;;;;5072934;28;19925;-63
2023/05/28 12:31:31;;;;;;;;;;;;;;;;;;5073751;28;19921;-64
2023/05/28 12:33:57;;;;;;;;;;;;;;;;;;5073712;28;19935;-64
2023/05/28 12:36:23;;;;;;;;;;;;;;;;;;5073925;28;19982;-63
2023/05/28 12:38:49;;;;;;;;;;;;;;;;;;5073849;28;19920;-64
2023/05/28 12:41:15;;;;;;;;;;;;;;;;;;5073922;28;19920;-64
2023/05/28 12:43:41;;;;;;;;;;;;;;;;;;5073542;28;20020;-64
2023/05/28 12:46:07;;;;;;;;;;;;;;;;;;5073493;28;19929;-64
2023/05/28 12:48:33;;;;;;;;;;;;;;;;;;5073386;28;19970;-63
2023/05/28 12:50:58;;;;;;;;;;;;;;;;;;5072312;28;19969;-64
2023/05/28 12:53:24;;;;;;;;;;;;;;;;;;5073450;28;20632;-64
2023/05/28 12:55:50;;;;;;;;;;;;;;;;;;5073048;28;19936;-64
2023/05/28 12:58:16;;;;;;;;;;;;;;;;;;5074352;28;19927;-64
2023/05/28 13:00:42;;;;;;;;;;;;;;;;;;5074302;28;20293;-65
2023/05/28 13:03:08;;;;;;;;;;;;;;;;;;5074519;28;19921;-63
2023/05/28 13:05:34;;;;;;;;;;;;;;;;;;5086631;22;19936;-65
2023/05/28 13:08:03;;;;;;;;;;;;;;;;;;5055745;28;19974;-66
2023/05/28 13:10:29;;;;;;;;;;;;;;;;;;5073326;28;19956;-65
2023/05/28 13:12:55;;;;;;;;;;;;;;;;;;5073175;28;19924;-65
2023/05/28 13:15:21;;;;;;;;;;;;;;;;;;5055341;28;19939;-65
2023/05/28 13:17:47;;;;;;;;;;;;;;;;;;5072350;28;20357;-68
2023/05/28 13:20:13;;;;;;;;;;;;;;;;;;5072776;28;19920;-68
2023/05/28 13:22:40;;;;;;;;;;;;;;;;;;5055229;28;19974;-65
2023/05/28 13:25:06;;;;;;;;;;;;;;;;;;5072859;28;20293;-65
2023/05/28 13:27:32;;;;;;;;;;;;;;;;;;5055056;28;20074;-65
2023/05/28 13:29:58;;;;;;;;;;;;;;;;;;5072899;28;20012;-65
2023/05/28 13:32:23;;;;;;;;;;;;;;;;;;5072821;28;19928;-65
2023/05/28 13:34:49;;;;;;;;;;;;;;;;;;5072713;28;19925;-65
2023/05/28 13:37:15;;;;;;;;;;;;;;;;;;5072587;28;19974;-65
2023/05/28 13:39:41;;;;;;;;;;;;;;;;;;5072928;28;20608;-65
2023/05/28 13:42:07;;;;;;;;;;;;;;;;;;5037749;28;19930;-65
2023/05/28 13:44:33;;;;;;;;;;;;;;;;;;5072403;28;19920;-65
2023/05/28 13:46:59;;;;;;;;;;;;;;;;;;5072588;28;19989;-65
2023/05/28 13:49:26;;;;;;;;;;;;;;;;;;5054397;28;19924;-65
2023/05/28 13:51:51;;;;;;;;;;;;;;;;;;5072325;28;19921;-65
2023/05/28 13:54:17;;;;;;;;;;;;;;;;;;5072399;28;19928;-65
2023/05/28 13:56:43;;;;;;;;;;;;;;;;;;5054392;28;19924;-65
2023/05/28 13:59:09;;;;;;;;;;;;;;;;;;5072167;28;19921;-65
2023/05/28 14:01:36;;;;;;;;;;;;;;;;;;5072411;28;19921;-65
2023/05/28 14:04:02;;;;;;;;;;;;;;;;;;5072285;28;19931;-65
2023/05/28 14:06:28;;;;;;;;;;;;;;;;;;5050552;28;19925;-65
2023/05/28 14:08:54;;;;;;;;;;;;;;;;;;5052292;28;20338;-65
2023/05/28 14:11:20;;;;;;;;;;;;;;;;;;5052200;28;19943;-65
2023/05/28 14:13:45;;;;;;;;;;;;;;;;;;5052296;28;20061;-65
2023/05/28 14:16:11;;;;;;;;;;;;;;;;;;5051929;28;20263;-65
2023/05/28 14:18:37;;;;;;;;;;;;;;;;;;5052187;28;19929;-65
2023/05/28 14:21:03;;;;;;;;;;;;;;;;;;5067541;28;20031;-65
2023/05/28 14:23:29;;;;;;;;;;;;;;;;;;5051905;28;20008;-65
2023/05/28 14:25:55;;;;;;;;;;;;;;;;;;5067152;28;20012;-65
2023/05/28 14:28:21;;;;;;;;;;;;;;;;;;5051888;28;20011;-65
2023/05/28 14:30:47;;;;;;;;;;;;;;;;;;5050135;28;19928;-65
2023/05/28 14:33:13;;;;;;;;;;;;;;;;;;5051837;28;19920;-65
2023/05/28 14:35:39;;;;;;;;;;;;;;;;;;5051720;28;19931;-65
2023/05/28 14:38:05;;;;;;;;;;;;;;;;;;5051837;28;19979;-65
2023/05/28 14:40:31;;;;;;;;;;;;;;;;;;5052025;28;20381;-65
2023/05/28 14:42:57;;;;;;;;;;;;;;;;;;5050167;28;19924;-65
2023/05/28 14:45:23;;;;;;;;;;;;;;;;;;5051710;28;19921;-66
2023/05/28 14:47:49;;;;;;;;;;;;;;;;;;5051697;28;19971;-65
2023/05/28 14:50:14;;;;;;;;;;;;;;;;;;5051662;28;20580;-65
2023/05/28 14:52:41;;;;;;;;;;;;;;;;;;5051615;28;19927;-65
2023/05/28 14:55:08;;;;;;;;;;;;;;;;;;5051713;28;19982;-65
2023/05/28 14:57:36;;;;;;;;;;;;;;;;;;5051605;28;19925;-65
2023/05/28 15:00:04;;;;;;;;;;;;;;;;;;5051768;28;19967;-65
2023/05/28 15:02:30;;;;;;;;;;;;;;;;;;5051791;28;19920;-65
2023/05/28 15:04:56;;;;;;;;;;;;;;;;;;5052746;28;19920;-65
2023/05/28 15:07:22;;;;;;;;;;;;;;;;;;5071442;28;19928;-65
2023/05/28 15:09:48;;;;;;;;;;;;;;;;;;5053421;28;20312;-66
2023/05/28 15:12:14;;;;;;;;;;;;;;;;;;5071356;28;19920;-65
2023/05/28 15:14:40;;;;;;;;;;;;;;;;;;5071180;28;19924;-65
2023/05/28 15:17:06;;;;;;;;;;;;;;;;;;5071747;28;19927;-65
2023/05/28 15:19:32;;;;;;;;;;;;;;;;;;5071378;28;19990;-65
2023/05/28 15:21:58;;;;;;;;;;;;;;;;;;5053683;28;20378;-65
2023/05/28 15:24:24;;;;;;;;;;;;;;;;;;5071378;28;19970;-65
2023/05/28 15:26:49;;;;;;;;;;;;;;;;;;5071102;28;19921;-66
2023/05/28 15:29:15;;;;;;;;;;;;;;;;;;5053415;28;20374;-65
2023/05/28 15:31:41;;;;;;;;;;;;;;;;;;5071359;28;19928;-65
2023/05/28 15:34:07;;;;;;;;;;;;;;;;;;5053143;28;19939;-65
2023/05/28 15:36:33;;;;;;;;;;;;;;;;;;5071318;28;19924;-65
2023/05/28 15:38:59;;;;;;;;;;;;;;;;;;5071397;28;19964;-65
2023/05/28 15:41:25;;;;;;;;;;;;;;;;;;5071653;28;20326;-66
2023/05/28 15:43:53;;;;;;;;;;;;;;;;;;5056585;28;20295;-67
2023/05/28 15:46:19;;;;;;;;;;;;;;;;;;5074762;28;19970;-67
2023/05/28 15:48:45;;;;;;;;;;;;;;;;;;5074580;28;19920;-67
2023/05/28 15:51:10;;;;;;;;;;;;;;;;;;5074724;28;19932;-67
2023/05/28 15:53:36;;;;;;;;;;;;;;;;;;5074728;28;20003;-67
2023/05/28 15:56:02;;;;;;;;;;;;;;;;;;5074547;28;20416;-68
2023/05/28 15:58:28;;;;;;;;;;;;;;;;;;5073736;28;19927;-67
2023/05/28 16:00:54;;;;;;;;;;;;;;;;;;5074199;28;19928;-67
2023/05/28 16:03:20;;;;;;;;;;;;;;;;;;5039462;28;19955;-68
2023/05/28 16:05:46;;;;;;;;;;;;;;;;;;5073612;28;20369;-68
2023/05/28 16:08:12;;;;;;;;;;;;;;;;;;5055488;28;20392;-68
2023/05/28 16:10:38;;;;;;;;;;;;;;;;;;5073549;28;19958;-67
2023/05/28 16:13:04;;;;;;;;;;;;;;;;;;5073441;28;20262;-67
2023/05/28 16:15:32;;;;;;;;;;;;;;;;;;5073338;28;20023;-67
2023/05/28 16:17:58;;;;;;;;;;;;;;;;;;5073436;28;19990;-67
2023/05/28 16:20:24;;;;;;;;;;;;;;;;;;5055293;28;19924;-67
2023/05/28 16:22:50;;;;;;;;;;;;;;;;;;5073853;28;20011;-67
2023/05/28 16:25:16;;;;;;;;;;;;;;;;;;5073151;28;19990;-67
2023/05/28 16:27:42;;;;;;;;;;;;;;;;;;5073517;28;19928;-67
2023/05/28 16:30:08;;;;;;;;;;;;;;;;;;5073288;28;19925;-67
2023/05/28 16:32:34;;;;;;;;;;;;;;;;;;5073330;28;19920;-67
2023/05/28 16:35:00;;;;;;;;;;;;;;;;;;5073282;28;19947;-67
2023/05/28 16:37:26;;;;;;;;;;;;;;;;;;5073370;28;19928;-67